Updated30/07/2021 09:30 
 

GeoURL
free counters
Scottish Weather Network UK Weather Network Cumulus Top Weather Sites

Peebles Weather - Nearby METAR Reports

Raw Data, Raw Data Expanded

Ignore low humidity and Dew Point values. Something wrong with the sensor.
Daytime temperatures are in direct sunlight so may be higher than official air temperature values.
As with any other website, we log your IP address and browser type in the server logs for diagnostic reasons. Cookies are used to record visit time and gauges preferences. No personal information is stored or processed.

All times are in local time (GMT, or BST in summer) unless specified.

2021/07/30 08:20 EGPH 300820Z 35002KT 9999 SCT012 BKN036 OVC048 16/13 Q1004
17.3°C 0.0 mm 0.0 mm 0.0 mm 1.3 mph 3.8 mph 999.1 hPa 70% X-Ray Solar Flare Level
Planetary K-Index
Planetary K-Index History
Station Warn Rain Snow Flood Wind Ltng Heat Cold Glob Moon Temp Rain 1h Rain Fri Rain 24h Wind 10m Gust Pressure Hum Proton Levels

m Waning Gibbous Comfortable F1-ESE F: A: Kp:0 SSN:0

METAR Reports

 

EGPH - Edinburgh Airpor, United Kingdom
Distance from station: NNW 22mi, 36km
Updated: 30/07/2021 09:20
Overcast
Overcast
 Wind from N
Wind: N 2 mph , 4 km/h
Temperature: 16°C
Dew Point: 13°C
Humidity: 83%
Barometer: 1004 hPa
Clouds: Overcast
Visibility: 6 miles , 10 km
Cloud details: Partly cloudy 366 m
Mostly cloudy 1097 m
Overcast 1463 m
2021/07/30 08:20 EGPH 300820Z 35002KT 9999 SCT012 BKN036 OVC048 16/13 Q1004
EGOM - Spadeadam, United Kingdom
Distance from station: SSE 49mi, 79km
Updated: 30/07/2021 08:50
Light rain, Drizzle, Mostly cloudy
Light rain, Drizzle, Mostly cloudy
 Wind from ENE
Wind: ENE 3 mph , 6 km/h
Temperature: 13°C
Dew Point: 12°C
Humidity: 94%
Barometer: 1003 hPa
Summary: Light rain, Drizzle
Clouds: Mostly cloudy
Visibility: 6 miles , 10 km
Cloud details: Few Clouds 792 m
Mostly cloudy 1524 m
2021/07/30 07:50 EGOM 300750Z AUTO 07003KT 9999 -RADZ FEW026/// BKN050/// 13/12 Q1003
 
EGNC - Carlisle, United Kingdom
Distance from station: SSE 51mi, 82km
Updated: 27/03/2020 14:50
NOT Current
Mostly cloudy
Mostly cloudy
 Wind from ENE
Wind: ENE 9 mph , 15 km/h
Temperature: 11°C
Dew Point: 4°C
Humidity: 62%
Barometer: 1029 hPa
Clouds: Mostly cloudy
Visibility: 6 miles , 9 km
Cloud details: Few Clouds 1067 m
Mostly cloudy 1372 m
2020/03/27 14:50 EGNC 271450Z 07008KT 050V110 9000 FEW035 BKN045 11/04 Q1029
EGPF - Glasgow Airport, United Kingdom
Distance from station: WNW 51mi, 82km
Updated: 30/07/2021 09:20
Overcast
Overcast
 Wind from varies
Wind: varies 1 mph , 2 km/h
Temperature: 16°C
Dew Point: 13°C
Humidity: 83%
Barometer: 1004 hPa
Clouds: Overcast
Visibility: 6 miles , 10 km
Cloud details: Mostly cloudy 1250 m
Overcast 1433 m
2021/07/30 08:20 EGPF 300820Z AUTO VRB01KT 9999 BKN041 OVC047 16/13 Q1004
 
EGQL - Leuchars Raf, United Kingdom
Distance from station: NNE 53mi, 85km
Updated: 30/07/2021 08:50
Light rain, Showers, Mostly cloudy
Light rain, Showers, Mostly cloudy
 Wind from SSE
Wind: SSE 9 mph , 15 km/h
Temperature: 15°C
Dew Point: 13°C
Humidity: 88%
Barometer: 1004 hPa
Summary: Light rain, Showers
Clouds: Mostly cloudy
Visibility: 6 miles , 10 km
Cloud details: Few Clouds 884 m
Mostly cloudy 1494 m
2021/07/30 07:50 EGQL 300750Z 15008KT 9999 -SHRA FEW029 BKN049 15/13 Q1004 RMK BLU
EGPK - Prestwick(Civ/Na, United Kingdom
Distance from station: W 55mi, 89km
Updated: 30/07/2021 09:20
Mostly cloudy
Mostly cloudy
 Wind from varies
Wind: varies 3 mph , 6 km/h
Temperature: 16°C
Dew Point: 11°C
Humidity: 72%
Barometer: 1004 hPa
Clouds: Mostly cloudy
Visibility: 6 miles , 10 km
Cloud details: Few Clouds 457 m
Mostly cloudy 823 m
2021/07/30 08:20 EGPK 300820Z VRB03KT 9999 FEW015 BKN027 16/11 Q1004
 
EGPN - Dundee/Riverside, United Kingdom
Distance from station: N 56mi, 90km
Updated: 30/07/2021 09:20
Mostly cloudy
Mostly cloudy
 Wind from SE
Wind: SE 7 mph , 11 km/h
Temperature: 16°C
Dew Point: 14°C
Humidity: 88%
Barometer: 1004 hPa
Clouds: Mostly cloudy
Visibility: 6 miles , 10 km
Cloud details: Partly cloudy 305 m
Mostly cloudy 853 m
2021/07/30 08:20 EGPN 300820Z 13006KT 9999 SCT010 BKN028 16/14 Q1004
EGNT - Newcastle, United Kingdom
Distance from station: SE 72mi, 116km
Updated: 30/07/2021 09:20
Few Clouds
Few Clouds
 Wind from NE
Wind: NE 3 mph , 6 km/h
Temperature: 15°C
Dew Point: 12°C
Humidity: 82%
Barometer: 1004 hPa
Clouds: Few Clouds
Visibility: 6 miles , 10 km
Cloud details: Few Clouds 1219 m
2021/07/30 08:20 EGNT 300820Z 04003KT 9999 FEW040 15/12 Q1004
 
EGNV - Tees-Side, United Kingdom
Distance from station: SE 104mi, 168km
Updated: 30/07/2021 09:20
Light rain, Partly cloudy
Light rain, Partly cloudy
 Wind from varies
Wind: varies 2 mph , 4 km/h
Temperature: 14°C
Dew Point: 13°C
Humidity: 94%
Barometer: 1004 hPa
Summary: Light rain
Clouds: Partly cloudy
Visibility: 5 miles , 8 km
Cloud details: Few Clouds 366 m
Partly cloudy 975 m
2021/07/30 08:20 EGNV 300820Z VRB02KT 8000 3000SE -RA FEW012 SCT032 14/13 Q1004
EGPD - Aberdeen/Dyce, United Kingdom
Distance from station: NNE 114mi, 183km
Updated: 30/07/2021 09:20
Overcast
Overcast
 Wind from NNW
Wind: NNW 8 mph , 13 km/h
Temperature: 15°C
Dew Point: 13°C
Humidity: 88%
Barometer: 1004 hPa
Clouds: Overcast
Visibility: 6 miles , 10 km
Cloud details: Overcast 366 m
2021/07/30 08:20 EGPD 300820Z AUTO 33007KT 9999 OVC012 15/13 Q1004
 
EGNS - Isle Of Man/Rona, United Kingdom
Distance from station: SSW 122mi, 197km
Updated: 30/07/2021 09:20
Partly cloudy
Partly cloudy
 Wind from varies
Wind: varies 3 mph , 6 km/h
Temperature: 15°C
Dew Point: 13°C
Humidity: 88%
Barometer: 1003 hPa
Clouds: Partly cloudy
Visibility: 6 miles , 10 km
Cloud details: Few Clouds 183 m
Partly cloudy 610 m
2021/07/30 08:20 EGNS 300820Z VRB03KT 9999 FEW006 SCT020 15/13 Q1003 NOSIG
EGAC - Belfast Harbour, United Kingdom
Distance from station: WSW 128mi, 206km
Updated: 30/07/2021 09:20
Mostly cloudy
Mostly cloudy
 Wind from NW
Wind: NW 7 mph , 11 km/h
Temperature: 15°C
Dew Point: 13°C
Humidity: 88%
Barometer: 1004 hPa
Clouds: Mostly cloudy
Visibility: 6 miles , 10 km
Cloud details: Partly cloudy 732 m
Mostly cloudy 884 m
Mostly cloudy 1036 m
2021/07/30 08:20 EGAC 300820Z AUTO 32006KT 9999 SCT024/// BKN029/// BKN034/// 15/13 Q1004
 
EGPE - Inverness/Dalcro, United Kingdom
Distance from station: NNW 134mi, 215km
Updated: 30/07/2021 09:20
Mostly cloudy
Mostly cloudy
 Wind from calm
Wind: Calm
Temperature: 16°C
Dew Point: 13°C
Humidity: 83%
Barometer: 1005 hPa
Clouds: Mostly cloudy
Visibility: 6 miles , 10 km
Cloud details: Few Clouds 366 m
Partly cloudy 549 m
Mostly cloudy 792 m
2021/07/30 08:20 EGPE 300820Z 00000KT 9999 FEW012 SCT018 BKN026 16/13 Q1005
XHTML 1.1 | CSS